createdAt,value
2019-05-19T00:00:17.559Z,24.60
2019-05-19T00:02:49.551Z,22.20
2019-05-19T00:05:21.448Z,28.97
2019-05-19T00:07:53.275Z,24.50
2019-05-19T00:10:25.069Z,22.43
2019-05-19T00:12:56.798Z,29.83
2019-05-19T00:15:28.494Z,24.67
2019-05-19T00:18:00.224Z,27.83
2019-05-19T00:20:31.940Z,35.03
2019-05-19T00:23:03.781Z,37.17
2019-05-19T00:25:35.589Z,37.20
2019-05-19T00:28:07.419Z,37.43
2019-05-19T00:30:39.140Z,40.53
2019-05-19T00:33:10.953Z,43.30
2019-05-19T00:35:42.681Z,41.57
2019-05-19T00:38:14.405Z,50.33
2019-05-19T00:40:46.112Z,56.47
2019-05-19T00:43:17.949Z,54.73
2019-05-19T00:45:50.043Z,47.47
2019-05-19T00:48:21.872Z,50.57
2019-05-19T00:50:53.585Z,43.07
2019-05-19T00:53:25.580Z,38.40
2019-05-19T00:55:59.105Z,39.17
2019-05-19T00:58:32.805Z,37.87
2019-05-19T01:01:04.605Z,40.90
2019-05-19T01:03:36.319Z,35.50
2019-05-19T01:06:08.276Z,34.33
2019-05-19T01:08:40.040Z,37.37
2019-05-19T01:11:11.749Z,36.93
2019-05-19T01:13:43.493Z,34.20
2019-05-19T01:16:15.305Z,35.27
2019-05-19T01:18:47.041Z,36.87
2019-05-19T01:21:19.654Z,38.27
2019-05-19T01:23:51.477Z,30.80
2019-05-19T01:26:23.296Z,35.07
2019-05-19T01:28:55.348Z,43.53
2019-05-19T01:31:27.385Z,36.47
2019-05-19T01:33:59.174Z,40.30
2019-05-19T01:36:30.900Z,44.43
2019-05-19T01:39:04.354Z,37.83
2019-05-19T01:41:36.054Z,37.83
2019-05-19T01:44:07.788Z,40.80
2019-05-19T01:46:39.589Z,39.20
2019-05-19T01:49:11.316Z,42.60
2019-05-19T01:51:43.020Z,44.10
2019-05-19T01:54:16.726Z,38.40
2019-05-19T01:56:48.449Z,39.27
2019-05-19T01:59:20.155Z,37.80
2019-05-19T02:01:51.872Z,34.60
2019-05-19T02:04:23.691Z,37.13
2019-05-19T02:06:55.390Z,34.07
2019-05-19T02:09:27.109Z,36.53
2019-05-19T02:11:58.923Z,34.03
2019-05-19T02:14:30.643Z,42.93
2019-05-19T02:17:02.647Z,37.30
2019-05-19T02:19:34.587Z,36.73
2019-05-19T02:22:06.313Z,36.20
2019-05-19T02:24:38.051Z,39.20
2019-05-19T02:27:09.789Z,36.47
2019-05-19T02:29:41.517Z,35.70
2019-05-19T02:32:13.318Z,32.87
2019-05-19T02:34:45.036Z,34.63
2019-05-19T02:37:16.845Z,39.53
2019-05-19T02:39:48.661Z,42.63
2019-05-19T02:42:22.382Z,35.77
2019-05-19T02:44:57.429Z,39.40
2019-05-19T02:47:30.153Z,37.63
2019-05-19T02:50:02.977Z,33.37
2019-05-19T02:52:37.157Z,31.90
2019-05-19T02:55:09.170Z,35.43
2019-05-19T02:57:41.898Z,33.67
2019-05-19T03:00:13.833Z,31.47
2019-05-19T03:02:45.658Z,30.83
2019-05-19T03:05:17.393Z,34.80
2019-05-19T03:07:49.127Z,30.47
2019-05-19T03:10:20.947Z,30.47
2019-05-19T03:12:52.796Z,30.70
2019-05-19T03:15:24.594Z,31.77
2019-05-19T03:17:56.432Z,29.07
2019-05-19T03:20:28.266Z,27.57
2019-05-19T03:22:59.973Z,30.20
2019-05-19T03:25:31.701Z,32.30
2019-05-19T03:28:03.616Z,33.67
2019-05-19T03:30:50.061Z,32.83
2019-05-19T03:33:24.894Z,27.77
2019-05-19T03:35:56.700Z,31.20
2019-05-19T03:38:28.409Z,33.87
2019-05-19T03:41:00.227Z,32.63
2019-05-19T03:43:31.933Z,29.23
2019-05-19T03:46:03.869Z,27.17
2019-05-19T03:48:35.578Z,30.67
2019-05-19T03:51:07.489Z,36.00
2019-05-19T03:53:39.193Z,28.70
2019-05-19T03:56:10.923Z,27.03
2019-05-19T03:58:42.721Z,25.57
2019-05-19T04:01:15.515Z,27.27
2019-05-19T04:03:47.249Z,26.23
2019-05-19T04:06:19.081Z,30.63
2019-05-19T04:08:50.773Z,26.97
2019-05-19T04:11:22.607Z,25.07
2019-05-19T04:13:54.409Z,27.03
2019-05-19T04:16:27.322Z,23.97
2019-05-19T04:18:59.135Z,26.23
2019-05-19T04:21:47.498Z,22.13
2019-05-19T04:24:04.555Z,26.63
2019-05-19T04:26:36.385Z,24.60
2019-05-19T04:29:08.163Z,27.53
2019-05-19T04:31:39.870Z,23.43
2019-05-19T04:34:11.584Z,22.27
2019-05-19T04:36:43.401Z,22.70
2019-05-19T04:39:15.105Z,26.80
2019-05-19T04:41:46.826Z,23.37
2019-05-19T04:44:18.637Z,23.33
2019-05-19T04:46:50.451Z,21.40
2019-05-19T04:49:22.263Z,28.00
2019-05-19T04:52:05.925Z,24.80
2019-05-19T04:54:27.805Z,24.37
2019-05-19T04:56:59.517Z,21.50
2019-05-19T04:59:31.214Z,24.07
2019-05-19T05:02:03.034Z,28.03
2019-05-19T05:04:34.841Z,22.10
2019-05-19T05:07:06.687Z,25.20
2019-05-19T05:09:38.389Z,22.13
2019-05-19T05:12:10.116Z,26.57
2019-05-19T05:14:41.824Z,27.13
2019-05-19T05:17:13.558Z,28.93
2019-05-19T05:19:45.264Z,23.77
2019-05-19T05:22:22.102Z,28.27
2019-05-19T05:24:50.695Z,31.33
2019-05-19T05:27:22.414Z,19.33
2019-05-19T05:29:54.117Z,21.97
2019-05-19T05:32:25.978Z,20.33
2019-05-19T05:34:57.794Z,21.03
2019-05-19T05:37:29.528Z,21.03
2019-05-19T05:40:01.345Z,22.07
2019-05-19T05:42:33.120Z,20.33
2019-05-19T05:45:05.569Z,20.10
2019-05-19T05:47:38.129Z,20.93
2019-05-19T05:50:10.819Z,19.60
2019-05-19T05:52:42.538Z,22.05
2019-05-19T05:55:14.439Z,23.45
2019-05-19T05:57:46.172Z,18.87
2019-05-19T06:00:18.380Z,20.70
2019-05-19T06:02:50.189Z,19.37
2019-05-19T06:05:22.001Z,17.17
2019-05-19T06:07:53.734Z,16.65
2019-05-19T06:10:25.447Z,17.15
2019-05-19T06:12:57.265Z,21.48
2019-05-19T06:15:29.016Z,21.00
2019-05-19T06:18:00.724Z,21.40
2019-05-19T06:20:32.565Z,16.17
2019-05-19T06:23:04.388Z,16.65
2019-05-19T06:25:36.371Z,17.40
2019-05-19T06:28:08.416Z,21.48
2019-05-19T06:30:40.160Z,18.00
2019-05-19T06:33:11.908Z,14.00
2019-05-19T06:35:43.646Z,16.42
2019-05-19T06:38:15.400Z,14.05
2019-05-19T06:40:47.217Z,18.30
2019-05-19T06:43:18.992Z,17.73
2019-05-19T06:45:50.702Z,20.72
2019-05-19T06:48:22.444Z,17.25
2019-05-19T06:50:54.175Z,20.20
2019-05-19T06:53:25.892Z,17.12
2019-05-19T06:55:57.714Z,15.50
2019-05-19T06:58:29.537Z,17.25
2019-05-19T07:01:01.258Z,15.40
2019-05-19T07:03:33.016Z,17.45
2019-05-19T07:06:04.821Z,15.65
2019-05-19T07:08:36.671Z,16.80
2019-05-19T07:11:08.485Z,16.32
2019-05-19T07:13:40.267Z,14.70
2019-05-19T07:16:12.089Z,15.65
2019-05-19T07:18:43.849Z,17.73
2019-05-19T07:21:15.693Z,18.32
2019-05-19T07:23:47.556Z,18.92
2019-05-19T07:26:19.361Z,14.03
2019-05-19T07:28:51.078Z,13.08
2019-05-19T07:31:22.816Z,13.38
2019-05-19T07:33:54.644Z,21.33
2019-05-19T07:36:26.825Z,15.70
2019-05-19T07:38:58.569Z,12.35
2019-05-19T07:41:30.286Z,13.00
2019-05-19T07:44:02.017Z,15.98
2019-05-19T07:46:33.739Z,14.93
2019-05-19T07:49:05.574Z,13.35
2019-05-19T07:51:37.382Z,12.15
2019-05-19T07:54:09.243Z,11.00
2019-05-19T07:56:41.065Z,12.25
2019-05-19T07:59:12.901Z,14.47
2019-05-19T08:01:44.608Z,13.10
2019-05-19T08:04:16.360Z,13.78
2019-05-19T08:06:48.073Z,12.07
2019-05-19T08:09:19.798Z,14.50
2019-05-19T08:11:51.512Z,14.93
2019-05-19T08:14:23.280Z,13.88
2019-05-19T08:16:54.989Z,13.05
2019-05-19T08:19:26.846Z,12.85
2019-05-19T08:21:58.740Z,15.45
2019-05-19T08:24:30.471Z,12.98
2019-05-19T08:27:02.307Z,17.23
2019-05-19T08:29:34.132Z,13.43
2019-05-19T08:32:05.836Z,15.40
2019-05-19T08:34:37.655Z,12.35
2019-05-19T08:37:09.444Z,11.55
2019-05-19T08:39:41.235Z,13.93
2019-05-19T08:42:12.950Z,11.15
2019-05-19T08:44:44.734Z,10.43
2019-05-19T08:47:16.506Z,12.60
2019-05-19T08:49:48.348Z,14.30
2019-05-19T08:52:20.081Z,11.93
2019-05-19T08:54:51.905Z,10.53
2019-05-19T08:57:23.629Z,14.15
2019-05-19T08:59:55.407Z,10.68
2019-05-19T09:02:27.192Z,12.75
2019-05-19T09:04:59.082Z,9.38
2019-05-19T09:07:30.892Z,14.80
2019-05-19T09:10:03.370Z,11.90
2019-05-19T09:12:35.180Z,12.13
2019-05-19T09:15:07.314Z,13.08
2019-05-19T09:17:39.072Z,10.13
2019-05-19T09:20:11.111Z,11.78
2019-05-19T09:22:42.939Z,10.95
2019-05-19T09:25:14.909Z,11.43
2019-05-19T09:27:46.636Z,8.88
2019-05-19T09:30:18.493Z,10.13
2019-05-19T09:32:50.221Z,7.95
2019-05-19T09:35:21.957Z,9.60
2019-05-19T09:37:53.705Z,10.20
2019-05-19T09:40:26.790Z,11.00
2019-05-19T09:42:58.951Z,9.15
2019-05-19T09:45:30.778Z,8.48
2019-05-19T09:48:02.493Z,8.23
2019-05-19T09:50:34.242Z,7.45
2019-05-19T09:53:05.969Z,11.05
2019-05-19T09:55:38.013Z,11.10
2019-05-19T09:58:09.757Z,8.83
2019-05-19T10:00:41.521Z,8.20
2019-05-19T10:03:13.453Z,7.85
2019-05-19T10:05:45.310Z,8.20
2019-05-19T10:08:22.616Z,8.63
2019-05-19T10:11:32.647Z,9.65
2019-05-19T10:14:04.654Z,8.75
2019-05-19T10:16:36.564Z,8.50
2019-05-19T10:19:08.402Z,9.38
2019-05-19T10:21:40.141Z,8.90
2019-05-19T10:24:11.853Z,7.42
2019-05-19T10:26:43.636Z,7.80
2019-05-19T10:29:15.632Z,7.55
2019-05-19T10:31:47.474Z,9.60
2019-05-19T10:34:19.332Z,14.00
2019-05-19T10:36:51.228Z,7.92
2019-05-19T10:39:23.010Z,5.90
2019-05-19T10:41:54.845Z,7.80
2019-05-19T10:44:26.564Z,5.58
2019-05-19T10:46:58.491Z,11.08
2019-05-19T10:49:30.308Z,6.95
2019-05-19T10:52:02.078Z,7.80
2019-05-19T10:54:33.799Z,9.03
2019-05-19T10:57:05.557Z,6.47
2019-05-19T10:59:37.385Z,8.90
2019-05-19T11:02:09.149Z,5.85
2019-05-19T11:04:40.913Z,6.50
2019-05-19T11:07:12.650Z,6.78
2019-05-19T11:09:44.375Z,6.17
2019-05-19T11:12:16.202Z,6.45
2019-05-19T11:14:47.928Z,7.42
2019-05-19T11:17:19.745Z,7.35
2019-05-19T11:19:51.589Z,7.87
2019-05-19T11:22:23.341Z,7.00
2019-05-19T11:24:55.101Z,12.85
2019-05-19T11:27:26.925Z,6.62
2019-05-19T11:29:58.640Z,6.53
2019-05-19T11:32:30.380Z,5.85
2019-05-19T11:35:02.333Z,6.30
2019-05-19T11:37:34.189Z,7.10
2019-05-19T11:40:06.211Z,7.53
2019-05-19T11:42:37.937Z,6.75
2019-05-19T11:45:09.849Z,8.88
2019-05-19T11:47:41.609Z,9.58
2019-05-19T11:50:13.408Z,6.08
2019-05-19T11:52:45.149Z,8.05
2019-05-19T11:55:16.981Z,6.70
2019-05-19T11:57:48.716Z,5.85
2019-05-19T12:00:20.563Z,6.15
2019-05-19T12:02:52.431Z,6.33
2019-05-19T12:05:24.204Z,6.87
2019-05-19T12:07:55.976Z,5.35
2019-05-19T12:10:27.693Z,6.62
2019-05-19T12:12:59.428Z,5.65
2019-05-19T12:15:31.152Z,7.87
2019-05-19T12:18:03.325Z,9.18
2019-05-19T12:20:35.063Z,9.60
2019-05-19T12:23:06.875Z,6.83
2019-05-19T12:25:38.625Z,5.67
2019-05-19T12:28:10.437Z,8.03
2019-05-19T12:30:42.160Z,8.80
2019-05-19T12:33:13.996Z,6.80
2019-05-19T12:35:45.713Z,6.25
2019-05-19T12:38:17.557Z,6.67
2019-05-19T12:40:49.389Z,7.12
2019-05-19T12:43:26.330Z,6.05
2019-05-19T12:45:58.304Z,5.40
2019-05-19T12:48:30.263Z,6.80
2019-05-19T12:51:01.988Z,5.60
2019-05-19T12:53:33.890Z,6.62
2019-05-19T12:56:05.619Z,6.95
2019-05-19T12:58:37.593Z,8.45
2019-05-19T13:01:09.411Z,8.03
2019-05-19T13:03:41.241Z,6.00
2019-05-19T13:06:12.942Z,7.67
2019-05-19T13:08:44.665Z,6.30
2019-05-19T13:11:16.424Z,5.67
2019-05-19T13:13:48.202Z,5.28
2019-05-19T13:16:19.922Z,7.30
2019-05-19T13:18:51.662Z,5.53
2019-05-19T13:21:23.409Z,5.55
2019-05-19T13:23:55.916Z,9.23
2019-05-19T13:26:27.975Z,7.30
2019-05-19T13:28:59.992Z,6.65
2019-05-19T13:31:31.717Z,7.87
2019-05-19T13:34:03.440Z,8.85
2019-05-19T13:36:35.162Z,9.60
2019-05-19T13:39:07.227Z,6.83
2019-05-19T13:41:38.950Z,9.00
2019-05-19T13:44:10.881Z,8.38
2019-05-19T13:46:42.701Z,7.12
2019-05-19T13:49:14.417Z,6.85
2019-05-19T13:51:46.124Z,10.08
2019-05-19T13:54:17.884Z,6.33
2019-05-19T13:56:49.672Z,8.10
2019-05-19T13:59:21.423Z,13.90
2019-05-19T14:01:53.132Z,6.55
2019-05-19T14:04:24.881Z,7.30
2019-05-19T14:06:56.601Z,6.42
2019-05-19T14:09:28.467Z,7.53
2019-05-19T14:12:00.205Z,7.40
2019-05-19T14:14:31.994Z,8.43
2019-05-19T14:17:03.717Z,8.55
2019-05-19T14:19:35.466Z,8.95
2019-05-19T14:22:07.273Z,9.55
2019-05-19T14:24:39.185Z,8.25
2019-05-19T14:27:13.014Z,10.15
2019-05-19T14:29:44.608Z,8.25
2019-05-19T14:32:16.321Z,7.80
2019-05-19T14:34:48.148Z,8.78
2019-05-19T14:37:19.860Z,9.13
2019-05-19T14:39:51.629Z,9.00
2019-05-19T14:42:49.495Z,8.88
2019-05-19T14:45:21.328Z,11.38
2019-05-19T14:47:53.052Z,11.30
2019-05-19T14:50:25.076Z,6.67
2019-05-19T14:52:56.807Z,7.08
2019-05-19T14:55:28.685Z,8.90
2019-05-19T14:58:00.481Z,11.85
2019-05-19T15:00:32.262Z,11.25
2019-05-19T15:03:04.220Z,8.78
2019-05-19T15:05:36.013Z,8.35
2019-05-19T15:08:07.744Z,7.58
2019-05-19T15:10:39.459Z,12.30
2019-05-19T15:13:11.165Z,9.08
2019-05-19T15:15:42.893Z,9.78
2019-05-19T15:18:14.612Z,11.38
2019-05-19T15:20:46.397Z,12.85
2019-05-19T15:23:18.119Z,12.30
2019-05-19T15:25:49.847Z,11.80
2019-05-19T15:28:21.564Z,10.25
2019-05-19T15:30:53.309Z,9.60
2019-05-19T15:33:25.276Z,10.08
2019-05-19T15:35:57.094Z,11.60
2019-05-19T15:38:28.863Z,11.35
2019-05-19T15:41:00.715Z,9.15
2019-05-19T15:43:32.561Z,11.73
2019-05-19T15:46:04.286Z,9.05
2019-05-19T15:48:36.025Z,12.03
2019-05-19T15:51:07.777Z,9.18
2019-05-19T15:53:39.595Z,9.00
2019-05-19T15:56:11.459Z,10.03
2019-05-19T15:58:43.276Z,13.65
2019-05-19T16:01:15.018Z,9.28
2019-05-19T16:03:46.746Z,14.65
2019-05-19T16:06:18.492Z,9.30
2019-05-19T16:08:50.205Z,10.57
2019-05-19T16:11:21.965Z,12.23
2019-05-19T16:13:53.763Z,14.20
2019-05-19T16:16:25.496Z,12.40
2019-05-19T16:18:57.321Z,7.45
2019-05-19T16:21:29.065Z,10.15
2019-05-19T16:24:00.792Z,9.43
2019-05-19T16:26:32.533Z,15.63
2019-05-19T16:29:04.372Z,11.33
2019-05-19T16:31:36.196Z,16.63
2019-05-19T16:34:07.971Z,12.23
2019-05-19T16:36:39.823Z,12.93
2019-05-19T16:39:11.665Z,8.75
2019-05-19T16:41:43.422Z,14.63
2019-05-19T16:44:15.245Z,10.32
2019-05-19T16:46:47.171Z,9.38
2019-05-19T16:49:18.878Z,10.98
2019-05-19T16:51:50.609Z,14.23
2019-05-19T16:54:27.584Z,10.00
2019-05-19T16:56:59.458Z,10.10
2019-05-19T16:59:31.364Z,8.95
2019-05-19T17:02:03.323Z,12.00
2019-05-19T17:04:35.021Z,12.68
2019-05-19T17:07:06.760Z,9.90
2019-05-19T17:09:58.166Z,11.90
2019-05-19T17:12:29.911Z,13.13
2019-05-19T17:15:02.204Z,13.27
2019-05-19T17:17:34.566Z,12.63
2019-05-19T17:20:06.703Z,15.80
2019-05-19T17:22:38.547Z,11.00
2019-05-19T17:25:10.589Z,11.30
2019-05-19T17:27:42.417Z,9.80
2019-05-19T17:30:15.260Z,11.53
2019-05-19T17:32:47.032Z,11.57
2019-05-19T17:35:19.337Z,11.70
2019-05-19T17:37:51.361Z,16.32
2019-05-19T17:40:23.201Z,14.73
2019-05-19T17:42:55.007Z,11.10
2019-05-19T17:45:26.939Z,12.93
2019-05-19T17:48:09.704Z,12.63
2019-05-19T17:50:33.700Z,13.47
2019-05-19T17:53:05.941Z,10.43
2019-05-19T17:55:38.806Z,11.67
2019-05-19T17:58:11.100Z,10.47
2019-05-19T18:00:44.079Z,11.95
2019-05-19T18:03:16.485Z,19.53
2019-05-19T18:05:48.310Z,11.12
2019-05-19T18:08:20.124Z,10.00
2019-05-19T18:10:51.841Z,13.55
2019-05-19T18:13:23.750Z,11.93
2019-05-19T18:15:55.562Z,11.70
2019-05-19T18:18:27.394Z,11.93
2019-05-19T18:20:59.292Z,12.23
2019-05-19T18:23:31.138Z,16.57
2019-05-19T18:26:02.949Z,16.32
2019-05-19T18:28:34.689Z,12.37
2019-05-19T18:31:06.424Z,15.23
2019-05-19T18:33:38.196Z,14.83
2019-05-19T18:36:09.943Z,12.82
2019-05-19T18:38:44.513Z,13.85
2019-05-19T18:41:18.335Z,14.33
2019-05-19T18:43:52.129Z,14.13
2019-05-19T18:46:23.997Z,13.30
2019-05-19T18:48:55.858Z,15.10
2019-05-19T18:51:27.703Z,14.20
2019-05-19T18:53:59.913Z,17.50
2019-05-19T18:56:31.827Z,14.20
2019-05-19T18:59:03.680Z,15.67
2019-05-19T19:01:36.086Z,14.80
2019-05-19T19:04:08.027Z,15.73
2019-05-19T19:06:39.878Z,16.77
2019-05-19T19:09:11.825Z,19.73
2019-05-19T19:11:43.649Z,16.37
2019-05-19T19:14:17.994Z,14.53
2019-05-19T19:16:49.847Z,17.43
2019-05-19T19:19:21.676Z,16.40
2019-05-19T19:21:53.611Z,19.13
2019-05-19T19:24:25.865Z,18.27
2019-05-19T19:26:58.389Z,16.23
2019-05-19T19:29:33.631Z,16.27
2019-05-19T19:32:05.598Z,14.83
2019-05-19T19:34:37.421Z,15.43
2019-05-19T19:37:09.280Z,13.73
2019-05-19T19:39:41.056Z,21.87
2019-05-19T19:42:15.162Z,20.40
2019-05-19T19:44:47.256Z,18.37
2019-05-19T19:47:20.754Z,17.93
2019-05-19T19:49:52.724Z,16.80
2019-05-19T19:52:24.625Z,17.70
2019-05-19T19:54:56.504Z,19.07
2019-05-19T19:57:28.325Z,25.87
2019-05-19T20:00:00.117Z,18.37
2019-05-19T20:02:34.170Z,19.43
2019-05-19T20:05:06.103Z,16.80
2019-05-19T20:07:37.825Z,17.87
2019-05-19T20:10:09.868Z,14.50
2019-05-19T20:12:41.677Z,18.07
2019-05-19T20:15:16.343Z,14.47
2019-05-19T20:17:48.165Z,15.33
2019-05-19T20:20:19.971Z,14.90
2019-05-19T20:22:51.746Z,15.23
2019-05-19T20:25:23.566Z,15.03
2019-05-19T20:27:55.281Z,13.73
2019-05-19T20:30:35.812Z,13.97
2019-05-19T20:33:00.726Z,13.47
2019-05-19T20:35:35.525Z,19.13
2019-05-19T20:38:07.728Z,13.63
2019-05-19T20:40:41.680Z,14.07
2019-05-19T20:43:13.522Z,15.53
2019-05-19T20:45:45.601Z,14.87
2019-05-19T20:48:17.424Z,12.97
2019-05-19T20:50:49.153Z,14.07
2019-05-19T20:53:20.892Z,14.73
2019-05-19T20:55:52.623Z,12.50
2019-05-19T20:58:24.358Z,14.93
2019-05-19T21:00:56.292Z,13.63
2019-05-19T21:03:28.010Z,12.93
2019-05-19T21:05:59.728Z,13.20
2019-05-19T21:08:31.432Z,13.53
2019-05-19T21:11:03.241Z,15.80
2019-05-19T21:13:34.958Z,15.57
2019-05-19T21:16:06.701Z,10.40
2019-05-19T21:18:38.623Z,17.30
2019-05-19T21:21:10.448Z,17.37
2019-05-19T21:23:42.280Z,15.30
2019-05-19T21:26:14.193Z,15.23
2019-05-19T21:28:45.927Z,13.30
2019-05-19T21:31:17.646Z,16.63
2019-05-19T21:33:49.447Z,14.73
2019-05-19T21:36:21.175Z,18.60
2019-05-19T21:38:52.898Z,16.47
2019-05-19T21:41:24.643Z,15.13
2019-05-19T21:43:56.361Z,23.13
2019-05-19T21:46:28.168Z,14.70
2019-05-19T21:48:59.876Z,19.43
2019-05-19T21:51:31.721Z,17.37
2019-05-19T21:54:03.449Z,17.07
2019-05-19T21:56:35.202Z,15.43
2019-05-19T21:59:07.105Z,18.40
2019-05-19T22:01:38.938Z,16.90
2019-05-19T22:04:10.865Z,14.83
2019-05-19T22:06:46.652Z,18.47
2019-05-19T22:09:18.353Z,16.67
2019-05-19T22:11:50.085Z,17.83
2019-05-19T22:14:21.783Z,15.43
2019-05-19T22:16:53.504Z,14.87
2019-05-19T22:19:25.396Z,14.20
2019-05-19T22:21:57.154Z,15.23
2019-05-19T22:24:28.865Z,14.50
2019-05-19T22:27:00.571Z,12.60
2019-05-19T22:29:32.342Z,14.40
2019-05-19T22:32:04.099Z,13.13
2019-05-19T22:34:35.821Z,14.37
2019-05-19T22:37:07.757Z,12.37
2019-05-19T22:39:39.557Z,13.43
2019-05-19T22:42:11.282Z,13.50
2019-05-19T22:44:42.984Z,17.53
2019-05-19T22:47:14.809Z,11.97
2019-05-19T22:49:46.533Z,13.50
2019-05-19T22:52:18.252Z,13.73
2019-05-19T22:54:49.977Z,13.70
2019-05-19T22:57:21.704Z,11.03
2019-05-19T22:59:53.413Z,14.20
2019-05-19T23:02:25.311Z,16.17
2019-05-19T23:04:56.999Z,13.47
2019-05-19T23:07:28.742Z,13.80
2019-05-19T23:10:00.526Z,13.67
2019-05-19T23:12:32.246Z,16.77
2019-05-19T23:15:04.623Z,16.07
2019-05-19T23:17:36.331Z,23.17
2019-05-19T23:20:08.559Z,16.67
2019-05-19T23:22:40.439Z,14.97
2019-05-19T23:25:12.253Z,17.47
2019-05-19T23:27:43.975Z,18.87
2019-05-19T23:30:15.785Z,17.40
2019-05-19T23:32:47.593Z,18.13
2019-05-19T23:35:19.289Z,18.07
2019-05-19T23:37:51.124Z,21.57
2019-05-19T23:40:22.845Z,19.57
2019-05-19T23:42:54.576Z,18.27
2019-05-19T23:45:26.274Z,21.13
2019-05-19T23:47:58.368Z,22.73
2019-05-19T23:50:30.083Z,21.73
2019-05-19T23:53:01.794Z,25.80
2019-05-19T23:55:33.495Z,22.57
2019-05-19T23:58:05.334Z,21.87
